Time;durP1;ratioP1;P1;durP2;ratioP2;P2;SDS_P1;SDS_P2;PMS_P1;PMS_P2;Temp;Humidity;BMP_temperature;BMP_pressure;BME280_temperature;BME280_humidity;BME280_pressure;Samples;Min_cycle;Max_cycle;Signal;HPM_P1;HPM_P2
2022/11/02 00:00:24;;;;;;;1.73;1.20;;;;;;;18.81;53.75;93887.56;5050708;28;20044;-91
2022/11/02 00:02:49;;;;;;;1.50;1.17;;;;;;;18.80;53.99;93886.06;5068990;28;20036;-88
2022/11/02 00:05:14;;;;;;;2.22;1.25;;;;;;;18.80;53.73;93875.09;5086312;28;20036;-88
2022/11/02 00:07:40;;;;;;;1.50;1.40;;;;;;;18.81;53.67;93884.81;5070372;28;20048;-89
2022/11/02 00:10:06;;;;;;;2.28;1.20;;;;;;;18.80;53.81;93879.84;5086390;28;20047;-89
2022/11/02 00:12:33;;;;;;;2.10;1.20;;;;;;;18.81;53.93;93884.06;5068890;28;20119;-91
2022/11/02 00:14:58;;;;;;;2.85;1.30;;;;;;;18.81;53.48;93886.81;5053148;28;20036;-91
2022/11/02 00:17:23;;;;;;;1.70;1.20;;;;;;;18.79;53.93;93897.50;5053065;28;20058;-89
2022/11/02 00:19:49;;;;;;;1.25;1.00;;;;;;;18.79;53.70;93892.03;5053856;28;20032;-90
2022/11/02 00:22:15;;;;;;;1.35;1.17;;;;;;;18.80;54.12;93883.31;5052282;28;20029;-90
2022/11/02 00:24:41;;;;;;;1.67;1.35;;;;;;;18.80;53.82;93894.28;5066155;28;20059;-92
2022/11/02 00:27:06;;;;;;;1.48;1.02;;;;;;;18.80;53.36;93888.78;5036932;28;20036;-92
2022/11/02 00:29:33;;;;;;;1.60;1.13;;;;;;;18.80;53.68;93896.25;5065756;28;20033;-91
2022/11/02 00:31:59;;;;;;;1.55;1.05;;;;;;;18.79;54.20;93897.50;5043890;28;20028;-90
2022/11/02 00:34:24;;;;;;;1.15;1.05;;;;;;;18.78;53.51;93891.28;5083741;28;20039;-91
2022/11/02 00:36:49;;;;;;;1.67;1.00;;;;;;;18.81;53.77;93895.03;5082745;28;20450;-92
2022/11/02 00:39:15;;;;;;;1.52;1.08;;;;;;;18.80;53.73;93904.47;5083650;28;20047;-89
2022/11/02 00:41:40;;;;;;;1.25;0.90;;;;;;;18.79;53.73;93906.47;5085191;28;20036;-91
2022/11/02 00:44:06;;;;;;;1.33;1.08;;;;;;;18.78;53.57;93904.97;5051046;28;20033;-92
2022/11/02 00:46:32;;;;;;;1.88;1.45;;;;;;;18.79;53.72;93905.72;5084550;28;20032;-91
2022/11/02 00:48:58;;;;;;;1.17;1.00;;;;;;;18.78;53.73;93906.97;5049210;28;20048;-91
2022/11/02 00:51:23;;;;;;;1.60;1.17;;;;;;;18.78;53.60;93898.75;5080198;28;20036;-91
2022/11/02 00:53:48;;;;;;;0.95;0.90;;;;;;;18.77;53.63;93895.28;5049497;28;20044;-90
2022/11/02 00:56:14;;;;;;;2.88;1.20;;;;;;;18.79;53.78;93905.72;5061884;28;20044;-92
2022/11/02 00:58:40;;;;;;;1.63;1.05;;;;;;;18.78;53.71;93902.25;5047698;28;20380;-90
2022/11/02 01:01:06;;;;;;;2.80;1.20;;;;;;;18.78;53.84;93904.97;5046126;28;20037;-91
2022/11/02 01:03:31;;;;;;;1.77;1.48;;;;;;;18.78;53.79;93904.22;5049911;28;20058;-90
2022/11/02 01:05:57;;;;;;;1.27;1.08;;;;;;;18.77;53.70;93892.53;5068341;28;20037;-91
2022/11/02 01:08:22;;;;;;;1.30;1.00;;;;;;;18.77;53.83;93898.00;5084366;28;20043;-90
2022/11/02 01:10:48;;;;;;;1.05;0.85;;;;;;;18.77;53.57;93902.75;5082772;28;20137;-89
2022/11/02 01:13:14;;;;;;;1.58;1.23;;;;;;;18.77;53.71;93906.22;5047486;28;20037;-91
2022/11/02 01:15:40;;;;;;;0.98;0.90;;;;;;;18.77;53.70;93903.50;5063184;28;20258;-92
2022/11/02 01:18:06;;;;;;;1.00;0.80;;;;;;;18.77;53.74;93903.50;5061945;28;20047;-91
2022/11/02 01:20:33;;;;;;;1.08;0.98;;;;;;;18.77;53.69;93908.97;5028362;28;20037;-90
2022/11/02 01:22:58;;;;;;;1.25;1.13;;;;;;;18.77;53.63;93913.69;5030389;28;20037;-91
2022/11/02 01:25:24;;;;;;;1.15;0.93;;;;;;;18.77;53.70;93910.97;5066121;28;20504;-90
2022/11/02 01:27:50;;;;;;;1.38;1.00;;;;;;;18.77;53.47;93908.22;5047098;28;20040;-90
2022/11/02 01:30:15;;;;;;;1.42;0.75;;;;;;;18.78;53.80;93906.97;5046473;28;20037;-91
2022/11/02 01:32:41;;;;;;;1.13;0.82;;;;;;;18.76;53.97;93912.19;5061772;28;20043;-89
2022/11/02 01:35:06;;;;;;;1.00;0.90;;;;;;;18.75;53.90;93908.72;5082747;28;20040;-89
2022/11/02 01:37:34;;;;;;;2.00;1.25;;;;;;;18.77;53.42;93913.69;5035792;28;20033;-90
2022/11/02 01:39:59;;;;;;;1.90;1.25;;;;;;;18.77;53.77;93914.44;5048096;28;20116;-89
2022/11/02 01:42:37;;;;;;;1.05;0.93;;;;;;;18.77;53.60;93916.44;5065012;28;20054;-90
2022/11/02 01:45:04;;;;;;;2.35;1.33;;;;;;;18.77;53.45;93916.44;5049831;28;20112;-89
2022/11/02 01:47:31;;;;;;;2.25;1.50;;;;;;;18.75;53.51;93913.44;5067019;28;20135;-92
2022/11/02 01:50:03;;;;;;;1.45;1.30;;;;;;;18.75;53.72;93916.94;5031091;28;20041;-91
2022/11/02 01:52:34;;;;;;;3.03;1.70;;;;;;;18.77;53.57;93919.19;5030703;28;20036;-92
2022/11/02 01:55:03;;;;;;;;;;;;;;;18.79;53.58;93922.91;5031587;28;20070;-92
2022/11/02 01:57:29;;;;;;;1.77;1.25;;;;;;;18.77;53.44;93914.44;5078491;28;19920;-91
2022/11/02 02:00:06;;;;;;;1.70;1.55;;;;;;;18.75;53.74;93919.69;5054945;28;20058;-90
2022/11/02 02:02:33;;;;;;;1.98;1.50;;;;;;;18.75;53.49;93918.94;5067387;28;20029;-89
2022/11/02 02:05:03;;;;;;;1.88;1.27;;;;;;;18.75;53.59;93924.41;5051541;28;20461;-90
2022/11/02 02:07:28;;;;;;;1.92;1.38;;;;;;;18.74;53.81;93911.94;5038184;28;20028;-91
2022/11/02 02:09:54;;;;;;;1.92;1.60;;;;;;;18.74;53.53;93915.44;5030905;28;20063;-90
2022/11/02 02:12:20;;;;;;;1.50;1.10;;;;;;;18.74;53.49;93912.69;5045549;28;20036;-89
2022/11/02 02:14:45;;;;;;;1.83;1.38;;;;;;;18.75;53.71;93913.44;5083064;28;20065;-89
2022/11/02 02:17:20;;;;;;;1.58;1.30;;;;;;;18.75;53.52;93911.47;5038440;28;20013;-91
2022/11/02 02:19:51;;;;;;;1.35;1.10;;;;;;;18.75;53.59;93910.72;5081836;28;20044;-91
2022/11/02 02:23:00;;;;;;;1.42;1.10;;;;;;;18.74;53.59;93912.69;5078309;28;20482;-89
2022/11/02 02:25:56;;;;;;;2.10;1.27;;;;;;;18.74;53.58;93909.97;5045224;28;20047;-90
2022/11/02 02:28:43;;;;;;;2.30;1.70;;;;;;;18.74;53.67;93911.94;5113632;28;20040;-88
2022/11/02 02:31:11;;;;;;;1.80;1.30;;;;;;;18.74;53.52;93907.22;5066271;28;20048;-89
2022/11/02 02:33:43;;;;;;;1.95;1.17;;;;;;;18.73;53.51;93911.22;5062097;28;20060;-90
2022/11/02 02:36:19;;;;;;;1.65;1.08;;;;;;;18.72;53.39;93908.97;5070708;28;20075;-90
2022/11/02 02:38:46;;;;;;;3.17;2.03;;;;;;;18.72;53.61;93909.72;5067166;28;20453;-89
2022/11/02 02:41:26;;;;;;;2.15;1.23;;;;;;;18.73;53.91;93915.94;5065437;28;20395;-89
2022/11/02 02:43:52;;;;;;;1.70;1.00;;;;;;;18.73;53.45;93910.47;5049633;28;20252;-89
2022/11/02 02:46:50;;;;;;;1.48;1.35;;;;;;;18.72;53.47;93900.75;5049233;28;20074;-91
2022/11/02 02:49:19;;;;;;;2.75;1.40;;;;;;;18.72;53.51;93898.00;5070189;28;20044;-91
2022/11/02 02:51:44;;;;;;;1.88;1.15;;;;;;;18.71;53.71;93907.47;5064620;28;20032;-89
2022/11/02 02:54:17;;;;;;;1.70;1.17;;;;;;;18.71;53.61;93910.22;5066185;28;20494;-90
2022/11/02 02:56:45;;;;;;;1.15;1.05;;;;;;;18.71;53.72;93913.69;5064631;28;20036;-91
2022/11/02 02:59:20;;;;;;;2.20;1.33;;;;;;;18.71;53.38;93908.22;5046538;28;20053;-90
2022/11/02 03:01:51;;;;;;;1.38;1.00;;;;;;;18.71;53.58;93907.47;5049158;28;20417;-91
2022/11/02 03:04:16;;;;;;;1.80;1.30;;;;;;;18.71;53.78;93905.47;5050799;28;20039;-91
2022/11/02 03:06:44;;;;;;;1.38;1.10;;;;;;;18.70;53.48;93912.22;5067529;28;20040;-90
2022/11/02 03:09:19;;;;;;;2.00;1.23;;;;;;;18.71;53.73;93907.47;5049377;28;20056;-91
2022/11/02 03:11:55;;;;;;;1.25;1.00;;;;;;;18.71;53.71;93912.94;5083277;28;20047;-91
2022/11/02 03:14:25;;;;;;;1.52;0.93;;;;;;;18.71;53.41;93918.44;5065225;28;20048;-90
2022/11/02 03:17:08;;;;;;;2.23;1.13;;;;;;;18.70;53.54;93909.47;5080153;28;20033;-91
2022/11/02 03:19:40;;;;;;;1.33;1.05;;;;;;;18.71;53.53;93918.44;5046586;28;20357;-91
2022/11/02 03:22:10;;;;;;;2.25;1.10;;;;;;;18.71;53.56;93912.94;5074561;28;20108;-91
2022/11/02 03:25:08;;;;;;;1.33;1.20;;;;;;;18.70;53.59;93920.41;5044428;28;20044;-91
2022/11/02 03:27:39;;;;;;;2.03;1.27;;;;;;;18.71;53.49;93910.22;5102379;28;20040;-91
2022/11/02 03:30:11;;;;;;;1.95;1.30;;;;;;;18.69;53.56;93913.44;5066724;28;20036;-90
2022/11/02 03:32:51;;;;;;;3.17;1.38;;;;;;;18.70;53.75;93919.69;5045902;28;20102;-92
2022/11/02 03:35:37;;;;;;;1.20;1.10;;;;;;;18.69;53.69;93913.44;5062848;28;20053;-91
2022/11/02 03:38:12;;;;;;;5.18;1.35;;;;;;;18.70;53.50;93920.41;5077691;28;20041;-90
2022/11/02 03:40:42;;;;;;;1.58;1.48;;;;;;;18.70;53.49;93920.41;5030435;28;20037;-93
2022/11/02 03:43:07;;;;;;;1.73;1.35;;;;;;;18.70;53.63;93922.41;5072013;28;20055;-89
2022/11/02 03:45:38;;;;;;;2.78;1.80;;;;;;;18.68;53.35;93920.19;5062044;28;20036;-91
2022/11/02 03:48:06;;;;;;;1.48;1.23;;;;;;;18.69;53.84;93927.16;5080719;28;20036;-90
2022/11/02 03:50:31;;;;;;;1.85;1.60;;;;;;;18.69;53.67;93926.41;5064746;28;20070;-91
2022/11/02 03:53:00;;;;;;;2.13;1.80;;;;;;;18.69;53.67;93923.66;5058421;28;20040;-89
2022/11/02 03:55:30;;;;;;;1.98;1.27;;;;;;;18.68;53.53;93927.63;5065744;28;20032;-90
2022/11/02 03:57:56;;;;;;;1.73;1.40;;;;;;;18.69;53.68;93912.69;5056007;28;20379;-90
2022/11/02 04:00:23;;;;;;;2.47;1.38;;;;;;;18.69;53.53;93916.19;5047448;28;20032;-88
2022/11/02 04:02:50;;;;;;;1.60;1.45;;;;;;;18.69;53.64;93920.91;5088880;28;20060;-90
2022/11/02 04:05:15;;;;;;;1.50;1.17;;;;;;;18.69;53.76;93920.91;5051577;28;20036;-92
2022/11/02 04:14:36;;;;;;;2.00;1.50;;;;;;;18.69;53.67;93929.13;5086536;28;20043;-91
2022/11/02 04:16:15;;;;;;;2.05;1.48;;;;;;;18.68;53.62;93922.16;5051791;28;20185;-88
2022/11/02 04:21:28;;;;;;;2.25;1.92;;;;;;;18.67;53.77;93923.41;5084687;28;20035;-91
2022/11/02 04:26:39;;;;;;;1.30;1.10;;;;;;;18.67;53.81;93928.88;5051244;28;20046;-89
2022/11/02 04:29:05;;;;;;;2.75;1.55;;;;;;;18.67;53.54;93931.63;5063382;28;20079;-91
2022/11/02 04:31:30;;;;;;;1.55;1.30;;;;;;;18.67;53.75;93931.63;5065368;28;20061;-90
2022/11/02 04:33:58;;;;;;;2.05;1.48;;;;;;;18.66;53.65;93935.59;5065854;28;20040;-90
2022/11/02 04:36:24;;;;;;;2.10;1.65;;;;;;;18.66;53.74;93936.34;5066787;28;20024;-91
2022/11/02 04:38:49;;;;;;;2.00;1.80;;;;;;;18.66;53.82;93943.81;5052956;28;20047;-90
2022/11/02 04:44:00;;;;;;;3.45;1.60;;;;;;;18.75;53.91;93935.34;5043945;28;20051;-90
2022/11/02 04:46:30;;;;;;;5.05;1.40;;;;;;;18.70;53.98;93936.09;5067525;28;20462;-91
2022/11/02 04:48:55;;;;;;;2.60;1.80;;;;;;;18.68;53.35;93944.81;5075182;28;20044;-91
2022/11/02 04:51:23;;;;;;;2.05;1.30;;;;;;;18.68;53.71;93933.13;5054941;28;20093;-90
2022/11/02 04:53:49;;;;;;;1.30;1.20;;;;;;;18.70;53.61;93947.81;5044549;28;20150;-89
2022/11/02 04:56:14;;;;;;;2.97;1.33;;;;;;;18.74;53.64;93944.81;5071510;28;20154;-90
2022/11/02 04:58:40;;;;;;;2.10;1.25;;;;;;;18.72;53.44;93937.09;5026676;28;20051;-89
2022/11/02 05:01:11;;;;;;;2.75;1.30;;;;;;;18.73;53.18;93940.59;5042792;28;20048;-91
2022/11/02 05:03:37;;;;;;;3.25;1.20;;;;;;;18.73;53.67;93935.13;5052817;28;20044;-90
2022/11/02 05:06:02;;;;;;;1.05;0.90;;;;;;;18.74;53.27;93931.88;5062369;28;20040;-90
2022/11/02 05:08:28;;;;;;;1.50;1.30;;;;;;;18.71;53.42;93937.59;5037518;28;20589;-91
2022/11/02 05:10:55;;;;;;;4.60;3.40;;;;;;;18.66;53.24;93950.03;5054590;28;20040;-91
2022/11/02 05:13:21;;;;;;;9.48;6.45;;;;;;;18.55;53.18;93947.31;5069806;28;20082;-91
2022/11/02 05:15:46;;;;;;;11.13;6.45;;;;;;;18.56;53.26;93951.53;5024547;28;20045;-88
2022/11/02 05:18:13;;;;;;;14.63;7.78;;;;;;;18.49;53.30;93958.25;5026081;28;20032;-89
2022/11/02 05:20:38;;;;;;;19.50;9.15;;;;;;;18.45;53.25;93957.75;5046202;28;20048;-90
2022/11/02 05:23:05;;;;;;;18.08;10.10;;;;;;;18.44;53.35;93958.25;5028601;28;20419;-91
2022/11/02 05:25:30;;;;;;;17.70;9.95;;;;;;;18.41;53.68;93964.69;5050991;28;20040;-89
2022/11/02 05:27:57;;;;;;;22.98;12.25;;;;;;;18.41;53.84;93965.44;5052300;28;20117;-88
2022/11/02 05:30:23;;;;;;;27.33;12.85;;;;;;;18.45;54.21;93949.53;5038870;28;20052;-89
2022/11/02 05:32:49;;;;;;;22.75;11.98;;;;;;;18.46;54.55;93959.25;5038653;28;20051;-89
2022/11/02 05:35:14;;;;;;;174.48;143.82;;;;;;;18.48;54.22;93962.22;5050785;28;21174;-89
2022/11/02 05:37:40;;;;;;;37.97;24.50;;;;;;;18.56;53.95;93964.47;5035384;28;20101;-87
2022/11/02 05:40:09;;;;;;;21.95;18.60;;;;;;;18.60;53.68;93962.28;5031376;28;20047;-89
2022/11/02 05:42:38;;;;;;;29.77;14.07;;;;;;;18.60;54.15;93962.28;5055616;28;20044;-90
2022/11/02 05:45:04;;;;;;;18.23;13.18;;;;;;;18.63;53.97;93961.25;5043785;28;20045;-88
2022/11/02 05:47:29;;;;;;;49.55;18.67;;;;;;;18.62;53.96;93971.44;5029149;28;20044;-90
2022/11/02 05:49:55;;;;;;;24.25;14.02;;;;;;;18.65;53.72;93978.69;5045565;28;20586;-88
2022/11/02 05:52:20;;;;;;;30.35;16.10;;;;;;;18.62;53.96;93985.16;5054998;28;20739;-88
2022/11/02 05:54:45;;;;;;;31.15;15.43;;;;;;;18.63;53.88;93983.91;5016519;28;20079;-88
2022/11/02 05:57:12;;;;;;;37.63;14.98;;;;;;;18.62;53.58;93985.16;5029627;28;20037;-85
2022/11/02 05:59:38;;;;;;;30.77;16.77;;;;;;;18.62;54.05;93990.63;5031143;28;20087;-88
2022/11/02 06:02:03;;;;;;;39.10;15.27;;;;;;;18.64;53.53;93993.63;5010541;28;20040;-87
2022/11/02 06:04:29;;;;;;;79.60;26.15;;;;;;;18.62;53.68;93990.63;5038479;28;20029;-89
2022/11/02 06:06:55;;;;;;;58.50;24.23;;;;;;;18.66;53.83;93998.59;5030600;28;20048;-89
2022/11/02 06:09:20;;;;;;;85.57;39.40;;;;;;;18.63;53.67;93992.13;5025647;28;20048;-88
2022/11/02 06:11:46;;;;;;;97.97;43.90;;;;;;;18.67;53.97;93991.88;5030814;28;20028;-87
2022/11/02 06:14:11;;;;;;;209.65;107.07;;;;;;;18.66;53.94;93993.88;5035622;28;20037;-88
2022/11/02 06:16:37;;;;;;;190.63;95.22;;;;;;;18.66;53.65;93993.13;5027462;28;20102;-89
2022/11/02 06:19:02;;;;;;;185.43;95.82;;;;;;;18.66;53.67;93999.34;5047892;28;20037;-88
2022/11/02 06:21:28;;;;;;;218.63;104.55;;;;;;;18.67;53.74;93991.88;5016473;28;20041;-90
2022/11/02 06:23:53;;;;;;;279.13;133.15;;;;;;;18.68;53.77;94001.59;5020103;28;20044;-91
2022/11/02 06:26:19;;;;;;;269.30;123.85;;;;;;;18.71;53.61;94000.59;5017828;28;20041;-90
2022/11/02 06:28:44;;;;;;;243.13;126.28;;;;;;;18.69;53.83;93998.34;5021745;28;20107;-88
2022/11/02 06:31:10;;;;;;;250.68;128.23;;;;;;;18.68;54.00;93996.84;5049116;28;20051;-85
2022/11/02 06:33:35;;;;;;;236.55;125.80;;;;;;;18.71;53.94;93998.59;5034133;28;20043;-86
2022/11/02 06:36:01;;;;;;;248.85;130.68;;;;;;;18.74;53.69;94002.34;5023757;28;20047;-87
2022/11/02 06:38:26;;;;;;;242.68;130.95;;;;;;;18.72;53.66;94010.31;5014075;28;20033;-87
2022/11/02 06:40:56;;;;;;;258.63;138.65;;;;;;;18.73;53.49;94007.06;5032085;28;20520;-88
2022/11/02 06:43:21;;;;;;;246.65;130.20;;;;;;;18.78;53.54;94008.31;5052874;28;20394;-88
2022/11/02 06:45:46;;;;;;;247.70;130.60;;;;;;;18.73;53.66;94012.53;5060981;28;20043;-88
2022/11/02 06:48:12;;;;;;;220.50;104.75;;;;;;;18.74;53.59;94016.03;5051729;28;20033;-89
2022/11/02 06:50:37;;;;;;;121.32;60.10;;;;;;;18.63;53.50;94026.97;5033680;28;20048;-88
2022/11/02 06:53:03;;;;;;;136.82;62.83;;;;;;;18.65;53.49;94032.69;5029154;28;20769;-88
2022/11/02 06:55:28;;;;;;;145.77;60.83;;;;;;;18.62;53.57;94025.50;5040223;28;20044;-88
2022/11/02 06:57:54;;;;;;;134.25;57.22;;;;;;;18.62;53.81;94028.25;5050992;28;20044;-90
2022/11/02 07:00:19;;;;;;;120.60;58.20;;;;;;;18.68;54.16;94026.97;5044161;28;20029;-90
2022/11/02 07:02:45;;;;;;;149.32;73.00;;;;;;;18.68;53.92;94029.72;5051371;28;20040;-87
2022/11/02 07:05:12;;;;;;;163.05;73.72;;;;;;;18.69;54.08;94025.72;5051145;28;20838;-88
2022/11/02 07:07:37;;;;;;;198.50;100.43;;;;;;;18.78;54.60;94027.50;5036635;28;20041;-87
2022/11/02 07:10:12;;;;;;;187.15;97.90;;;;;;;18.80;54.11;94035.97;5029387;28;20051;-86
2022/11/02 07:12:37;;;;;;;122.25;62.05;;;;;;;18.76;54.14;94038.94;5041532;28;20045;-90
2022/11/02 07:15:03;;;;;;;126.07;58.45;;;;;;;18.79;53.46;94037.19;5050824;28;20039;-89
2022/11/02 07:17:28;;;;;;;124.28;56.55;;;;;;;18.81;53.27;94040.19;5060907;28;20372;-87
2022/11/02 07:19:54;;;;;;;98.53;52.95;;;;;;;18.86;53.59;94033.94;5059070;28;20069;-90
2022/11/02 07:22:19;;;;;;;113.13;62.50;;;;;;;18.90;53.46;94039.94;5058754;28;20032;-87
2022/11/02 07:24:45;;;;;;;116.57;67.82;;;;;;;18.92;53.41;94050.38;5038812;28;20035;-89
2022/11/02 07:27:10;;;;;;;212.35;98.10;;;;;;;18.89;53.42;94046.66;5029027;28;20071;-91
2022/11/02 07:29:36;;;;;;;268.98;92.20;;;;;;;18.86;53.47;94039.41;5037062;28;20101;-89
2022/11/02 07:32:02;;;;;;;111.03;61.67;;;;;;;18.81;53.17;94046.41;5048142;28;20028;-88
2022/11/02 07:34:28;;;;;;;81.28;44.65;;;;;;;18.73;53.32;94050.13;5044443;28;20044;-90
2022/11/02 07:36:54;;;;;;;93.22;46.42;;;;;;;18.78;53.28;94046.66;5035657;28;20035;-88
2022/11/02 07:39:19;;;;;;;129.57;51.97;;;;;;;18.80;52.91;94041.44;5054558;28;20693;-90
2022/11/02 07:41:45;;;;;;;86.20;43.28;;;;;;;18.81;53.21;94038.19;5035832;28;20188;-90
2022/11/02 07:44:10;;;;;;;108.45;52.20;;;;;;;18.81;53.25;94040.94;5034534;28;20032;-88
2022/11/02 07:46:43;;;;;;;90.07;47.70;;;;;;;18.79;53.20;94045.41;5041655;28;20105;-90
2022/11/02 07:49:09;;;;;;;129.98;65.53;;;;;;;18.80;53.29;94044.91;5045387;28;20032;-89
2022/11/02 07:51:35;;;;;;;129.88;67.32;;;;;;;18.79;53.49;94040.69;5046896;28;20047;-89
2022/11/02 07:54:01;;;;;;;137.38;65.65;;;;;;;18.79;53.37;94037.94;5035727;28;20634;-89
2022/11/02 07:56:27;;;;;;;124.22;65.20;;;;;;;18.81;53.78;94043.69;5038488;28;20036;-87
2022/11/02 07:58:53;;;;;;;135.80;66.35;;;;;;;18.80;53.47;94044.91;5056884;28;20517;-91
2022/11/02 08:01:19;;;;;;;152.52;76.80;;;;;;;18.81;53.51;94046.41;5047770;28;20145;-90
2022/11/02 08:03:44;;;;;;;184.27;85.60;;;;;;;18.84;53.44;94044.66;5034851;28;20045;-85
2022/11/02 08:06:10;;;;;;;196.32;100.50;;;;;;;18.83;53.60;94048.66;5046741;28;20047;-89
2022/11/02 08:08:35;;;;;;;178.40;90.47;;;;;;;18.86;53.72;94052.38;5043433;28;20380;-87
2022/11/02 08:11:08;;;;;;;214.10;96.53;;;;;;;18.87;53.42;94051.13;5035135;28;20089;-86
2022/11/02 08:13:34;;;;;;;228.43;101.63;;;;;;;18.87;53.17;94056.59;5073104;28;20036;-89
2022/11/02 08:15:59;;;;;;;219.70;100.47;;;;;;;18.90;53.45;94058.34;5035398;28;20033;-85
2022/11/02 08:18:26;;;;;;;233.77;98.03;;;;;;;18.88;53.41;94058.84;5050991;28;20063;-88
2022/11/02 08:20:53;;;;;;;205.38;97.75;;;;;;;18.89;53.74;94068.56;5054615;28;20066;-86
2022/11/02 08:23:19;;;;;;;222.00;107.70;;;;;;;18.90;53.59;94059.09;5036008;28;20036;-86
2022/11/02 08:25:45;;;;;;;212.65;103.93;;;;;;;18.90;53.54;94061.09;5060636;28;20072;-87
2022/11/02 08:28:14;;;;;;;232.73;122.00;;;;;;;18.93;53.73;94066.31;5038657;28;20071;-85
2022/11/02 08:30:39;;;;;;;246.55;127.43;;;;;;;18.94;53.66;94067.06;5050168;28;20544;-84
2022/11/02 08:33:06;;;;;;;217.57;121.43;;;;;;;18.89;53.98;94063.09;5051503;28;20036;-86
2022/11/02 08:35:32;;;;;;;198.23;115.55;;;;;;;18.92;53.81;94067.56;5039171;28;20040;-88
2022/11/02 08:37:58;;;;;;;215.57;111.10;;;;;;;18.94;53.83;94064.34;5036506;28;20036;-88
2022/11/02 08:40:24;;;;;;;197.10;111.75;;;;;;;18.94;53.47;94081.53;5031710;28;20045;-86
2022/11/02 08:43:01;;;;;;;195.88;106.28;;;;;;;18.93;53.46;94077.28;5053960;28;20040;-88
2022/11/02 08:45:27;;;;;;;183.10;106.70;;;;;;;18.94;53.70;94070.56;5060755;28;20124;-89
2022/11/02 08:47:52;;;;;;;189.95;106.20;;;;;;;18.97;53.43;94075.06;5051591;28;20048;-87
2022/11/02 08:50:18;;;;;;;185.35;107.22;;;;;;;18.93;53.58;94084.75;5029614;28;20087;-87
2022/11/02 08:52:43;;;;;;;182.30;103.85;;;;;;;18.95;53.63;94072.06;5055549;28;20063;-87
2022/11/02 08:55:09;;;;;;;171.07;97.03;;;;;;;18.95;53.69;94080.28;5041900;28;20806;-86
2022/11/02 08:57:47;;;;;;;173.63;102.10;;;;;;;18.99;53.59;94075.31;5058045;28;20032;-85
2022/11/02 09:00:13;;;;;;;158.00;91.30;;;;;;;18.97;53.67;94083.28;5059165;28;20036;-87
2022/11/02 09:02:39;;;;;;;166.98;93.47;;;;;;;18.96;53.76;94075.53;5035183;28;20052;-86
2022/11/02 09:05:04;;;;;;;169.07;103.43;;;;;;;18.94;53.69;94081.53;5045147;28;20052;-85
2022/11/02 09:07:30;;;;;;;173.75;97.05;;;;;;;19.01;53.54;94094.00;5075768;28;20391;-85
2022/11/02 09:09:55;;;;;;;178.18;103.32;;;;;;;19.00;53.74;94095.97;5084988;28;20046;-85
2022/11/02 09:12:21;;;;;;;238.63;113.88;;;;;;;19.00;53.76;94097.97;5035176;28;20105;-85
2022/11/02 09:14:47;;;;;;;235.52;111.85;;;;;;;19.03;53.83;94094.25;5066448;28;20574;-90
2022/11/02 09:17:12;;;;;;;217.63;108.28;;;;;;;18.98;53.66;94092.25;5060541;28;20068;-89
2022/11/02 09:19:38;;;;;;;205.60;105.32;;;;;;;19.00;54.09;94087.00;5025195;28;20032;-90
2022/11/02 09:22:03;;;;;;;196.32;102.03;;;;;;;19.00;53.69;94087.75;5031497;28;20063;-92
2022/11/02 09:24:28;;;;;;;192.80;104.60;;;;;;;19.03;53.66;94084.03;5041613;28;20040;-86
2022/11/02 09:26:54;;;;;;;187.88;105.53;;;;;;;19.06;53.43;94087.75;5058577;28;20141;-88
2022/11/02 09:29:19;;;;;;;189.65;99.95;;;;;;;19.03;53.76;94091.50;5034203;28;20044;-89
2022/11/02 09:31:47;;;;;;;208.65;106.38;;;;;;;19.04;53.75;94093.75;5045580;28;20418;-87
2022/11/02 09:34:13;;;;;;;197.07;102.20;;;;;;;19.05;53.92;94094.50;5083509;28;20051;-88
2022/11/02 09:36:39;;;;;;;209.60;105.72;;;;;;;19.00;53.78;94095.22;5067543;28;20154;-90
2022/11/02 09:39:04;;;;;;;174.40;99.72;;;;;;;19.01;53.87;94104.94;5036189;28;20047;-89
2022/11/02 09:41:37;;;;;;;185.18;101.90;;;;;;;19.02;53.80;94104.44;5056524;28;20047;-88
2022/11/02 09:44:23;;;;;;;205.60;110.32;;;;;;;19.00;53.88;94093.25;5054956;28;20119;-90
2022/11/02 09:46:50;;;;;;;183.85;102.85;;;;;;;19.02;53.81;94085.28;5044530;28;20049;-89
2022/11/02 09:49:17;;;;;;;233.02;122.85;;;;;;;19.00;53.96;94097.97;5070174;28;20569;-88
2022/11/02 09:51:50;;;;;;;267.52;132.38;;;;;;;19.03;54.09;94089.50;5034681;28;20045;-90
2022/11/02 09:54:18;;;;;;;262.10;140.60;;;;;;;19.03;54.33;94095.00;5070474;28;20036;-90
2022/11/02 09:56:44;;;;;;;323.73;169.05;;;;;;;19.10;53.81;94096.47;5072102;28;20032;-92
2022/11/02 09:59:18;;;;;;;326.67;176.00;;;;;;;19.06;53.82;94098.69;5043149;28;20059;-91
2022/11/02 10:02:02;;;;;;;355.90;205.60;;;;;;;19.08;54.28;94098.94;5033590;28;20044;-90
2022/11/02 10:04:41;;;;;;;369.92;202.23;;;;;;;19.07;54.32;94091.97;5065552;28;20394;-90
2022/11/02 10:07:21;;;;;;;376.75;221.50;;;;;;;19.09;53.88;94097.69;5069641;28;20048;-88
2022/11/02 10:09:52;;;;;;;412.13;229.95;;;;;;;19.08;54.10;94096.22;5066179;28;20059;-90
2022/11/02 10:12:26;;;;;;;387.52;220.80;;;;;;;19.09;53.83;94090.22;5059681;28;20028;-91
2022/11/02 10:14:54;;;;;;;373.88;206.75;;;;;;;19.09;53.99;94106.69;5063201;28;20048;-92
2022/11/02 10:17:25;;;;;;;382.60;213.45;;;;;;;19.07;54.28;94089.97;5048123;28;20094;-91
2022/11/02 10:19:54;;;;;;;400.15;216.30;;;;;;;19.11;54.07;94089.72;5058430;28;20047;-91
2022/11/02 10:22:19;;;;;;;386.90;211.77;;;;;;;19.11;53.99;94084.25;5058322;28;20033;-90
2022/11/02 10:24:45;;;;;;;382.30;211.95;;;;;;;19.10;54.06;94082.75;5059688;28;20042;-88
2022/11/02 10:27:25;;;;;;;379.80;201.05;;;;;;;19.10;53.89;94086.25;5052994;28;20048;-87
2022/11/02 10:30:05;;;;;;;351.70;197.35;;;;;;;19.15;53.94;94079.28;5056304;28;20049;-89
2022/11/02 10:32:31;;;;;;;330.20;190.38;;;;;;;19.14;53.92;94083.25;5050498;28;20044;-91
2022/11/02 10:34:57;;;;;;;334.63;190.55;;;;;;;19.12;54.06;94072.78;5053848;28;20456;-90
2022/11/02 10:37:44;;;;;;;322.58;185.73;;;;;;;19.11;54.10;94084.25;5052591;28;20045;-88
2022/11/02 10:40:13;;;;;;;316.42;182.38;;;;;;;19.13;53.98;94082.50;5069415;28;20044;-89
2022/11/02 10:42:42;;;;;;;312.73;182.02;;;;;;;19.15;54.53;94080.03;5068607;28;20097;-88
2022/11/02 10:45:46;;;;;;;321.10;187.57;;;;;;;19.14;54.22;94092.22;5071545;28;20383;-89
2022/11/02 10:48:30;;;;;;;326.13;194.15;;;;;;;19.14;54.17;94091.47;5068932;28;20049;-88
2022/11/02 10:51:02;;;;;;;382.65;229.88;;;;;;;19.13;53.99;94098.94;5066464;28;20562;-90
2022/11/02 10:53:35;;;;;;;430.90;275.38;;;;;;;19.13;54.04;94103.69;5035822;28;20045;-90
2022/11/02 10:56:09;;;;;;;447.20;292.85;;;;;;;19.14;54.19;94099.69;5056416;28;20041;-89
2022/11/02 10:58:35;;;;;;;472.33;292.33;;;;;;;19.15;54.13;94107.44;5042613;28;20115;-90
2022/11/02 11:01:08;;;;;;;479.38;298.77;;;;;;;19.14;53.92;94107.94;5036957;28;20051;-90
2022/11/02 11:03:42;;;;;;;446.20;287.70;;;;;;;19.16;53.90;94105.44;5028883;28;20045;-89
2022/11/02 11:06:07;;;;;;;480.17;295.33;;;;;;;19.16;53.71;94105.44;5058892;28;20045;-89
2022/11/02 11:08:38;;;;;;;456.35;279.75;;;;;;;19.14;53.85;94111.41;5043073;28;20557;-89
2022/11/02 11:11:10;;;;;;;440.95;275.17;;;;;;;19.14;53.50;94105.94;5032570;28;20051;-90
2022/11/02 11:13:37;;;;;;;410.83;260.75;;;;;;;19.16;53.82;94089.00;5048453;28;20040;-91
2022/11/02 11:16:03;;;;;;;408.05;258.95;;;;;;;19.19;53.61;94096.22;5032989;28;20025;-90
2022/11/02 11:18:28;;;;;;;414.60;268.85;;;;;;;19.16;54.01;94099.94;5043332;28;20068;-90
2022/11/02 11:20:53;;;;;;;395.98;257.63;;;;;;;19.16;54.24;94097.97;5037217;28;21545;-90
2022/11/02 11:23:20;;;;;;;416.95;272.85;;;;;;;19.15;53.94;94101.94;5041772;28;20093;-88
2022/11/02 11:26:04;;;;;;;376.95;242.02;;;;;;;19.14;53.72;94094.22;5040559;28;20040;-90
2022/11/02 11:28:49;;;;;;;361.90;238.27;;;;;;;19.14;53.72;94105.19;5028585;28;20072;-90
2022/11/02 11:31:15;;;;;;;343.73;221.73;;;;;;;19.12;53.79;94108.41;5067345;28;20108;-90
2022/11/02 11:33:43;;;;;;;341.48;223.45;;;;;;;19.17;53.79;94104.94;5050735;28;20032;-90
2022/11/02 11:36:09;;;;;;;356.25;236.10;;;;;;;19.18;53.74;94102.94;5050273;28;20036;-89
2022/11/02 11:38:34;;;;;;;327.88;214.77;;;;;;;19.17;54.05;94099.47;5039623;28;20029;-89